Time;durP1;ratioP1;P1;durP2;ratioP2;P2;SDS_P1;SDS_P2;PMS_P1;PMS_P2;Temp;Humidity;BMP_temperature;BMP_pressure;BME280_temperature;BME280_humidity;BME280_pressure;Samples;Min_cycle;Max_cycle;Signal;HPM_P1;HPM_P2
2021/11/04 00:01:16;;;;;;;15.13;10.82;;;;;;;;;;5019243;28;20440;-82
2021/11/04 00:04:24;;;;;;;14.45;10.77;;;;;;;;;;5019295;28;20050;-83
2021/11/04 00:06:53;;;;;;;18.17;10.52;;;;;;;;;;5019137;28;20490;-82
2021/11/04 00:09:19;;;;;;;17.20;11.48;;;;;;;;;;5019085;28;20098;-82
2021/11/04 00:11:45;;;;;;;17.00;10.93;;;;;;;;;;5019297;28;20026;-83
2021/11/04 00:14:13;;;;;;;18.45;11.05;;;;;;;;;;5019287;28;20049;-83
2021/11/04 00:16:39;;;;;;;19.38;10.23;;;;;;;;;;5019432;28;20029;-82
2021/11/04 00:19:24;;;;;;;14.45;10.05;;;;;;;;;;5018944;28;20044;-82
2021/11/04 00:21:50;;;;;;;15.65;11.25;;;;;;;;;;5019255;28;20034;-82
2021/11/04 00:24:17;;;;;;;17.67;10.57;;;;;;;;;;5019172;28;20381;-82
2021/11/04 00:26:43;;;;;;;15.73;10.70;;;;;;;;;;5018767;28;20172;-82
2021/11/04 00:29:09;;;;;;;19.27;10.40;;;;;;;;;;5018645;28;20424;-82
2021/11/04 00:31:35;;;;;;;17.05;10.93;;;;;;;;;;5018842;28;20030;-82
2021/11/04 00:34:19;;;;;;;16.98;10.68;;;;;;;;;;5018898;28;20044;-83
2021/11/04 00:36:45;;;;;;;14.80;10.00;;;;;;;;;;5018627;28;20054;-83
2021/11/04 00:39:12;;;;;;;20.50;10.02;;;;;;;;;;5018873;28;20088;-83
2021/11/04 00:41:39;;;;;;;18.98;10.70;;;;;;;;;;5001051;28;20034;-82
2021/11/04 00:44:05;;;;;;;16.27;9.57;;;;;;;;;;5001257;28;20121;-82
2021/11/04 00:46:32;;;;;;;17.90;10.85;;;;;;;;;;5001286;28;20037;-83
2021/11/04 00:48:58;;;;;;;17.35;10.50;;;;;;;;;;5018483;28;20030;-82
2021/11/04 00:51:25;;;;;;;15.45;9.95;;;;;;;;;;5018486;28;20068;-82
2021/11/04 00:53:51;;;;;;;14.57;9.85;;;;;;;;;;5001045;28;20117;-83
2021/11/04 00:56:17;;;;;;;14.85;10.50;;;;;;;;;;5018376;28;20068;-83
2021/11/04 00:58:43;;;;;;;16.08;10.98;;;;;;;;;;5000978;28;20324;-83
2021/11/04 01:01:09;;;;;;;18.23;12.00;;;;;;;;;;5000565;28;20085;-83
2021/11/04 01:03:35;;;;;;;19.98;12.50;;;;;;;;;;5018511;28;20071;-83
2021/11/04 01:06:02;;;;;;;19.00;12.30;;;;;;;;;;5018068;28;20037;-82
2021/11/04 01:08:28;;;;;;;20.17;12.32;;;;;;;;;;5018217;28;20121;-82
2021/11/04 01:10:54;;;;;;;17.65;11.52;;;;;;;;;;5000663;28;20018;-82
2021/11/04 01:13:20;;;;;;;20.48;12.10;;;;;;;;;;5000397;28;20034;-82
2021/11/04 01:15:46;;;;;;;18.45;11.68;;;;;;;;;;5017910;28;20077;-82
2021/11/04 01:18:49;;;;;;;16.90;11.30;;;;;;;;;;5017899;28;20427;-82
2021/11/04 01:21:16;;;;;;;19.50;12.05;;;;;;;;;;5017773;28;20084;-81
2021/11/04 01:23:42;;;;;;;18.30;10.93;;;;;;;;;;5017837;28;20120;-82
2021/11/04 01:26:08;;;;;;;15.80;10.45;;;;;;;;;;5017517;28;20026;-82
2021/11/04 01:28:34;;;;;;;17.30;11.25;;;;;;;;;;5017683;28;20025;-82
2021/11/04 01:31:00;;;;;;;15.57;11.50;;;;;;;;;;5000196;28;20037;-82
2021/11/04 01:33:26;;;;;;;16.45;10.25;;;;;;;;;;5017666;28;20412;-82
2021/11/04 01:35:52;;;;;;;18.48;11.00;;;;;;;;;;4999746;28;20344;-82
2021/11/04 01:38:19;;;;;;;15.90;10.25;;;;;;;;;;5000288;28;20018;-82
2021/11/04 01:40:45;;;;;;;18.35;12.05;;;;;;;;;;5000245;28;20336;-83
2021/11/04 01:43:12;;;;;;;17.98;10.88;;;;;;;;;;5017635;28;20412;-82
2021/11/04 01:45:38;;;;;;;18.50;11.27;;;;;;;;;;5000270;28;20341;-83
2021/11/04 01:48:04;;;;;;;17.70;12.23;;;;;;;;;;5017638;28;20037;-83
2021/11/04 01:50:31;;;;;;;19.50;12.48;;;;;;;;;;4999699;28;20034;-82
2021/11/04 01:52:57;;;;;;;19.35;12.07;;;;;;;;;;5000658;28;20068;-83
2021/11/04 01:55:25;;;;;;;18.15;11.50;;;;;;;;;;5017693;28;20101;-83
2021/11/04 01:57:51;;;;;;;19.40;12.23;;;;;;;;;;5017618;28;20409;-83
2021/11/04 02:00:18;;;;;;;20.90;12.20;;;;;;;;;;5017626;28;20417;-84
2021/11/04 02:02:46;;;;;;;19.35;12.48;;;;;;;;;;5017629;28;20033;-82
2021/11/04 02:05:15;;;;;;;19.00;11.63;;;;;;;;;;5017532;28;20488;-83
2021/11/04 02:07:46;;;;;;;23.73;12.43;;;;;;;;;;4999626;28;20034;-82
2021/11/04 02:10:12;;;;;;;17.45;11.25;;;;;;;;;;4999979;28;20049;-83
2021/11/04 02:12:40;;;;;;;19.95;11.18;;;;;;;;;;5017451;28;20324;-83
2021/11/04 02:15:07;;;;;;;19.70;10.88;;;;;;;;;;5017292;28;20471;-83
2021/11/04 02:17:33;;;;;;;18.80;11.65;;;;;;;;;;5017386;28;20036;-83
2021/11/04 02:23:11;;;;;;;19.10;11.88;;;;;;;;;;5017468;28;20064;-82
2021/11/04 02:25:37;;;;;;;19.65;10.73;;;;;;;;;;4999930;28;20022;-83
2021/11/04 02:28:07;;;;;;;20.40;11.68;;;;;;;;;;5017252;28;20041;-83
2021/11/04 02:30:33;;;;;;;15.85;10.05;;;;;;;;;;5017394;28;20030;-82
2021/11/04 02:33:00;;;;;;;16.77;10.68;;;;;;;;;;4999965;28;20910;-82
2021/11/04 02:35:26;;;;;;;20.88;11.88;;;;;;;;;;4998909;28;20053;-83
2021/11/04 02:37:53;;;;;;;17.52;10.95;;;;;;;;;;5018290;28;20038;-83
2021/11/04 02:40:21;;;;;;;14.13;9.77;;;;;;;;;;5020990;28;20440;-83
2021/11/04 02:42:47;;;;;;;16.73;9.38;;;;;;;;;;5021259;28;20360;-83
2021/11/04 02:45:13;;;;;;;15.80;10.55;;;;;;;;;;5021201;28;20026;-83
2021/11/04 02:47:40;;;;;;;14.30;9.00;;;;;;;;;;5020803;28;20405;-84
2021/11/04 02:50:07;;;;;;;16.35;9.88;;;;;;;;;;5020906;28;20379;-83
2021/11/04 02:52:34;;;;;;;15.65;9.73;;;;;;;;;;5003544;28;20021;-83
2021/11/04 02:55:03;;;;;;;16.33;9.68;;;;;;;;;;5003457;28;20029;-83
2021/11/04 02:57:29;;;;;;;16.17;9.55;;;;;;;;;;5021049;28;20156;-83
2021/11/04 02:59:55;;;;;;;18.95;10.25;;;;;;;;;;5020886;28;20029;-83
2021/11/04 03:02:21;;;;;;;15.65;9.43;;;;;;;;;;5020397;28;20108;-83
2021/11/04 03:05:25;;;;;;;21.42;10.88;;;;;;;;;;5020674;28;20100;-83
2021/11/04 03:07:51;;;;;;;15.07;9.93;;;;;;;;;;5020400;28;20076;-83
2021/11/04 03:10:18;;;;;;;16.40;10.13;;;;;;;;;;5020517;28;20022;-83
2021/11/04 03:12:44;;;;;;;19.90;9.20;;;;;;;;;;5020400;28;20388;-83
2021/11/04 03:15:12;;;;;;;17.00;9.25;;;;;;;;;;5020417;28;20032;-82
2021/11/04 03:17:40;;;;;;;15.85;8.82;;;;;;;;;;5003304;28;20026;-83
2021/11/04 03:20:07;;;;;;;15.70;9.40;;;;;;;;;;5020148;28;20018;-83
2021/11/04 03:22:33;;;;;;;15.77;8.85;;;;;;;;;;5020171;28;20409;-83
2021/11/04 03:24:59;;;;;;;14.07;7.85;;;;;;;;;;5002865;28;20017;-82
2021/11/04 03:27:26;;;;;;;17.42;9.02;;;;;;;;;;5002356;28;20033;-82
2021/11/04 03:29:52;;;;;;;14.18;8.07;;;;;;;;;;5020047;28;20101;-83
2021/11/04 03:32:21;;;;;;;12.95;7.50;;;;;;;;;;5019828;28;20049;-83
2021/11/04 03:35:24;;;;;;;17.33;8.43;;;;;;;;;;5002390;28;20037;-82
2021/11/04 03:37:51;;;;;;;13.45;8.02;;;;;;;;;;4982993;28;20097;-82
2021/11/04 03:40:18;;;;;;;13.48;8.85;;;;;;;;;;5000505;28;20099;-83
2021/11/04 03:42:44;;;;;;;19.98;8.95;;;;;;;;;;5000131;28;20022;-82
2021/11/04 03:45:12;;;;;;;17.48;8.32;;;;;;;;;;5000101;28;20048;-83
2021/11/04 03:47:38;;;;;;;14.88;8.02;;;;;;;;;;4983000;28;20074;-83
2021/11/04 03:53:45;;;;;;;15.35;8.32;;;;;;;;;;4997455;28;20057;-83
2021/11/04 03:56:11;;;;;;;14.00;8.02;;;;;;;;;;5019614;28;20042;-83
2021/11/04 03:58:41;;;;;;;13.95;7.97;;;;;;;;;;5002259;28;20022;-83
2021/11/04 04:01:08;;;;;;;15.80;8.38;;;;;;;;;;5019410;28;20109;-83
2021/11/04 04:03:34;;;;;;;12.63;7.72;;;;;;;;;;5019695;28;20116;-82
2021/11/04 04:06:01;;;;;;;15.07;8.20;;;;;;;;;;5019187;28;20409;-82
2021/11/04 04:08:27;;;;;;;14.13;8.43;;;;;;;;;;5019314;28;20033;-82
2021/11/04 04:10:53;;;;;;;19.27;10.60;;;;;;;;;;5019510;28;20030;-82
2021/11/04 04:13:19;;;;;;;11.88;8.43;;;;;;;;;;5001923;28;20022;-83
2021/11/04 04:15:45;;;;;;;12.45;8.93;;;;;;;;;;5019197;28;20068;-83
2021/11/04 04:18:11;;;;;;;13.43;8.48;;;;;;;;;;5001821;28;20323;-83
2021/11/04 04:20:37;;;;;;;15.77;8.40;;;;;;;;;;5019170;28;20034;-83
2021/11/04 04:23:03;;;;;;;17.55;8.38;;;;;;;;;;5019114;28;20524;-83
2021/11/04 04:25:30;;;;;;;15.07;8.43;;;;;;;;;;5001845;28;20034;-83
2021/11/04 04:27:57;;;;;;;14.25;8.20;;;;;;;;;;5019189;28;20050;-83
2021/11/04 04:30:23;;;;;;;15.20;8.43;;;;;;;;;;5018699;28;20121;-84
2021/11/04 04:32:49;;;;;;;14.73;8.00;;;;;;;;;;5019022;28;20421;-83
2021/11/04 04:35:15;;;;;;;19.13;8.18;;;;;;;;;;5018904;28;20030;-84
2021/11/04 04:37:41;;;;;;;13.65;8.13;;;;;;;;;;5037139;28;20072;-83
2021/11/04 04:40:08;;;;;;;16.58;7.30;;;;;;;;;;5021060;28;20028;-83
2021/11/04 04:42:35;;;;;;;13.52;7.65;;;;;;;;;;5038532;28;20029;-83
2021/11/04 04:45:01;;;;;;;14.60;7.28;;;;;;;;;;5021019;28;20025;-83
2021/11/04 04:47:27;;;;;;;17.17;7.10;;;;;;;;;;5020561;28;20029;-83
2021/11/04 04:52:57;;;;;;;18.48;7.30;;;;;;;;;;5038521;28;20043;-83
2021/11/04 04:55:24;;;;;;;13.73;7.30;;;;;;;;;;5038287;28;20059;-83
2021/11/04 04:57:50;;;;;;;17.00;7.10;;;;;;;;;;5037550;28;20042;-83
2021/11/04 05:00:16;;;;;;;14.85;7.35;;;;;;;;;;5037561;28;20408;-83
2021/11/04 05:02:43;;;;;;;13.88;6.85;;;;;;;;;;5020780;28;20021;-83
2021/11/04 05:05:11;;;;;;;16.17;7.22;;;;;;;;;;5037774;28;20029;-83
2021/11/04 05:07:37;;;;;;;18.33;7.47;;;;;;;;;;5020179;28;20420;-83
2021/11/04 05:10:04;;;;;;;18.08;7.60;;;;;;;;;;5020124;28;20044;-83
2021/11/04 05:12:30;;;;;;;17.17;6.80;;;;;;;;;;5020521;28;20112;-82
2021/11/04 05:14:57;;;;;;;11.05;7.00;;;;;;;;;;5037770;28;20021;-83
2021/11/04 05:17:23;;;;;;;15.23;7.63;;;;;;;;;;5020335;28;20076;-83
2021/11/04 05:19:49;;;;;;;17.05;7.18;;;;;;;;;;5037757;28;20024;-82
2021/11/04 05:22:15;;;;;;;15.65;8.13;;;;;;;;;;5037731;28;20032;-83
2021/11/04 05:24:41;;;;;;;19.67;7.97;;;;;;;;;;5037702;28;20404;-82
2021/11/04 05:27:08;;;;;;;20.98;8.57;;;;;;;;;;5038014;28;20036;-82
2021/11/04 05:29:34;;;;;;;19.15;8.20;;;;;;;;;;5037912;28;20052;-83
2021/11/04 05:32:01;;;;;;;13.98;6.60;;;;;;;;;;5033338;28;20024;-82
2021/11/04 05:35:05;;;;;;;15.45;7.25;;;;;;;;;;5037514;28;20033;-82
2021/11/04 05:37:31;;;;;;;16.98;7.97;;;;;;;;;;5037398;28;20094;-82
2021/11/04 05:39:57;;;;;;;14.88;6.82;;;;;;;;;;5025028;28;20053;-82
2021/11/04 05:42:23;;;;;;;24.60;7.15;;;;;;;;;;5034021;28;20025;-83
2021/11/04 05:44:50;;;;;;;15.95;7.22;;;;;;;;;;5040664;28;20056;-83
2021/11/04 05:47:17;;;;;;;12.77;6.78;;;;;;;;;;5057192;28;20100;-83
2021/11/04 05:49:43;;;;;;;14.90;7.03;;;;;;;;;;5056947;28;20108;-83
2021/11/04 05:52:09;;;;;;;14.27;8.00;;;;;;;;;;5057530;28;20029;-83
2021/11/04 05:54:35;;;;;;;16.45;7.35;;;;;;;;;;5039310;28;20061;-83
2021/11/04 05:57:02;;;;;;;12.15;6.68;;;;;;;;;;5020666;28;20029;-83
2021/11/04 05:59:28;;;;;;;13.93;7.40;;;;;;;;;;5037262;28;20024;-83
2021/11/04 06:01:54;;;;;;;16.30;8.05;;;;;;;;;;5019908;28;20021;-84
2021/11/04 06:04:21;;;;;;;12.95;6.78;;;;;;;;;;5041289;28;20052;-84
2021/11/04 06:06:47;;;;;;;18.67;7.70;;;;;;;;;;5055686;28;20033;-83
2021/11/04 06:09:13;;;;;;;15.77;7.55;;;;;;;;;;5045480;28;20033;-82
2021/11/04 06:11:39;;;;;;;16.90;8.57;;;;;;;;;;5021712;28;20064;-82
2021/11/04 06:14:05;;;;;;;21.52;8.07;;;;;;;;;;5024238;28;20024;-83
2021/11/04 06:16:32;;;;;;;16.85;8.73;;;;;;;;;;5041066;28;20021;-79
2021/11/04 06:19:10;;;;;;;15.55;8.23;;;;;;;;;;5055417;28;20021;-81
2021/11/04 06:21:36;;;;;;;19.60;9.65;;;;;;;;;;5042951;28;20064;-83
2021/11/04 06:24:02;;;;;;;19.00;7.57;;;;;;;;;;5060701;28;20048;-82
2021/11/04 06:26:28;;;;;;;17.63;7.55;;;;;;;;;;5060905;28;20021;-82
2021/11/04 06:28:54;;;;;;;19.77;8.73;;;;;;;;;;5041836;28;20059;-82
2021/11/04 06:31:20;;;;;;;17.83;7.95;;;;;;;;;;5040623;28;20029;-82
2021/11/04 06:33:46;;;;;;;15.90;6.60;;;;;;;;;;5038527;28;20083;-83
2021/11/04 06:36:25;;;;;;;14.43;6.15;;;;;;;;;;5039498;28;20074;-82
2021/11/04 06:38:51;;;;;;;16.95;6.78;;;;;;;;;;5040596;28;20080;-83
2021/11/04 06:41:18;;;;;;;17.85;7.00;;;;;;;;;;5042073;28;20411;-79
2021/11/04 06:43:44;;;;;;;22.02;7.10;;;;;;;;;;5058984;28;20320;-79
2021/11/04 06:46:11;;;;;;;15.07;6.40;;;;;;;;;;5050025;28;20131;-79
2021/11/04 06:48:37;;;;;;;24.17;7.10;;;;;;;;;;5060173;28;20056;-79
2021/11/04 06:51:04;;;;;;;11.05;5.90;;;;;;;;;;5042270;28;20080;-79
2021/11/04 06:53:30;;;;;;;17.30;6.40;;;;;;;;;;5060131;28;20031;-79
2021/11/04 06:56:00;;;;;;;21.48;6.07;;;;;;;;;;5059986;28;20021;-79
2021/11/04 06:58:28;;;;;;;17.00;6.40;;;;;;;;;;5042327;28;20124;-79
2021/11/04 07:00:55;;;;;;;13.57;6.03;;;;;;;;;;5042277;28;20091;-79
2021/11/04 07:03:24;;;;;;;17.85;5.93;;;;;;;;;;5060076;28;20025;-79
2021/11/04 07:06:07;;;;;;;23.58;7.13;;;;;;;;;;5059584;28;20041;-79
2021/11/04 07:08:40;;;;;;;29.02;8.80;;;;;;;;;;5042011;28;20036;-79
2021/11/04 07:11:06;;;;;;;15.35;6.95;;;;;;;;;;5042149;28;20028;-79
2021/11/04 07:13:32;;;;;;;20.08;7.40;;;;;;;;;;5059655;28;20067;-79
2021/11/04 07:15:59;;;;;;;15.35;7.28;;;;;;;;;;5059756;28;20335;-79
2021/11/04 07:18:25;;;;;;;27.08;8.13;;;;;;;;;;5042106;28;20044;-79
2021/11/04 07:21:03;;;;;;;17.17;6.55;;;;;;;;;;5059804;28;20072;-79
2021/11/04 07:23:49;;;;;;;17.90;7.53;;;;;;;;;;5059096;28;20036;-79
2021/11/04 07:26:15;;;;;;;12.82;6.60;;;;;;;;;;4978823;28;20058;-80
2021/11/04 07:28:43;;;;;;;18.80;6.95;;;;;;;;;;4978688;28;20031;-80
2021/11/04 07:31:10;;;;;;;14.98;6.88;;;;;;;;;;4975224;28;20126;-79
2021/11/04 07:33:41;;;;;;;20.33;6.82;;;;;;;;;;4978957;28;20030;-79
2021/11/04 07:36:07;;;;;;;18.30;6.38;;;;;;;;;;4978313;28;20038;-79
2021/11/04 07:38:34;;;;;;;19.30;6.45;;;;;;;;;;4978416;28;20125;-79
2021/11/04 07:41:01;;;;;;;19.42;6.90;;;;;;;;;;4961775;28;20150;-79
2021/11/04 07:43:30;;;;;;;19.02;7.45;;;;;;;;;;4978693;28;20067;-79
2021/11/04 07:45:56;;;;;;;15.07;6.65;;;;;;;;;;4962369;28;20054;-80
2021/11/04 07:48:23;;;;;;;18.48;7.82;;;;;;;;;;4978708;28;20117;-80
2021/11/04 07:50:50;;;;;;;16.45;7.50;;;;;;;;;;4977937;28;20046;-79
2021/11/04 07:53:17;;;;;;;23.25;7.20;;;;;;;;;;4978533;28;20030;-80
2021/11/04 07:55:43;;;;;;;19.77;7.72;;;;;;;;;;4978407;28;20081;-79
2021/11/04 07:58:10;;;;;;;21.45;7.82;;;;;;;;;;4978414;28;20049;-80
2021/11/04 08:00:36;;;;;;;16.65;8.52;;;;;;;;;;4978276;28;20073;-79
2021/11/04 08:03:02;;;;;;;14.88;6.80;;;;;;;;;;5009888;28;20411;-79
2021/11/04 08:05:28;;;;;;;16.95;7.70;;;;;;;;;;5058663;28;20438;-79
2021/11/04 08:07:54;;;;;;;18.17;7.90;;;;;;;;;;5058808;28;20128;-79
2021/11/04 08:10:20;;;;;;;19.48;8.40;;;;;;;;;;5040972;28;20032;-78
2021/11/04 08:12:47;;;;;;;19.80;7.70;;;;;;;;;;5058907;28;20044;-79
2021/11/04 08:15:13;;;;;;;18.08;8.38;;;;;;;;;;5058485;28;20108;-79
2021/11/04 08:17:40;;;;;;;15.68;6.70;;;;;;;;;;5040540;28;20029;-79
2021/11/04 08:20:07;;;;;;;17.42;7.55;;;;;;;;;;5058659;28;20025;-79
2021/11/04 08:22:33;;;;;;;16.67;7.95;;;;;;;;;;5058584;28;20062;-79
2021/11/04 08:25:00;;;;;;;16.27;6.70;;;;;;;;;;5040292;28;20037;-79
2021/11/04 08:27:26;;;;;;;15.48;6.75;;;;;;;;;;5040558;28;20029;-79
2021/11/04 08:29:53;;;;;;;14.80;7.07;;;;;;;;;;5058127;28;20033;-79
2021/11/04 08:32:19;;;;;;;16.75;6.05;;;;;;;;;;5058429;28;20155;-79
2021/11/04 08:34:45;;;;;;;19.25;6.95;;;;;;;;;;5058055;28;20033;-79
2021/11/04 08:37:12;;;;;;;14.57;6.15;;;;;;;;;;5040327;28;20057;-79
2021/11/04 08:39:39;;;;;;;14.63;6.28;;;;;;;;;;5058249;28;20100;-79
2021/11/04 08:42:05;;;;;;;19.48;6.00;;;;;;;;;;5057998;28;20031;-79
2021/11/04 08:44:32;;;;;;;18.48;6.15;;;;;;;;;;5057888;28;20316;-79
2021/11/04 08:46:59;;;;;;;18.23;5.97;;;;;;;;;;5058269;28;20078;-79
2021/11/04 08:49:25;;;;;;;13.85;5.28;;;;;;;;;;5058045;28;20113;-81
2021/11/04 08:51:54;;;;;;;12.50;5.97;;;;;;;;;;5040124;28;20420;-80
2021/11/04 08:54:22;;;;;;;17.95;5.35;;;;;;;;;;5057957;28;20104;-80
2021/11/04 08:56:48;;;;;;;14.27;5.45;;;;;;;;;;5057800;28;20025;-79
2021/11/04 08:59:15;;;;;;;19.90;5.97;;;;;;;;;;5039769;28;20037;-79
2021/11/04 09:01:41;;;;;;;13.65;5.60;;;;;;;;;;5058029;28;20021;-79
2021/11/04 09:04:08;;;;;;;29.27;9.85;;;;;;;;;;5057516;28;20052;-79
2021/11/04 09:06:36;;;;;;;24.92;7.25;;;;;;;;;;5057714;28;20334;-79
2021/11/04 09:09:04;;;;;;;25.15;8.15;;;;;;;;;;5039133;28;20078;-79
2021/11/04 09:11:33;;;;;;;24.98;7.25;;;;;;;;;;5057560;28;20033;-79
2021/11/04 09:13:59;;;;;;;17.92;7.97;;;;;;;;;;5057396;28;20424;-79
2021/11/04 09:16:26;;;;;;;16.95;5.93;;;;;;;;;;5057664;28;20040;-79
2021/11/04 09:18:52;;;;;;;15.10;5.43;;;;;;;;;;5057483;28;20021;-79
2021/11/04 09:21:19;;;;;;;13.77;5.38;;;;;;;;;;5057237;28;20025;-79
2021/11/04 09:23:47;;;;;;;18.95;5.78;;;;;;;;;;5057427;28;20049;-80
2021/11/04 09:26:17;;;;;;;16.50;5.10;;;;;;;;;;5056993;28;20052;-80
2021/11/04 09:28:43;;;;;;;16.42;5.95;;;;;;;;;;5056913;28;20450;-79
2021/11/04 09:31:10;;;;;;;17.48;5.85;;;;;;;;;;5039429;28;20029;-83
2021/11/04 09:33:39;;;;;;;24.65;6.70;;;;;;;;;;5059130;28;20071;-91
2021/11/04 09:36:36;;;;;;;19.70;5.45;;;;;;;;;;5057432;28;20021;-93
2021/11/04 09:39:03;;;;;;;20.60;5.53;;;;;;;;;;5058412;28;20183;-93
2021/11/04 09:41:29;;;;;;;15.45;4.82;;;;;;;;;;5058118;28;20057;-84
2021/11/04 09:43:57;;;;;;;17.23;6.20;;;;;;;;;;5040207;28;20037;-91
2021/11/04 09:46:24;;;;;;;16.45;5.05;;;;;;;;;;5057070;28;20037;-92
2021/11/04 09:48:51;;;;;;;19.85;5.00;;;;;;;;;;5058793;28;20364;-95
2021/11/04 09:54:24;;;;;;;13.75;5.57;;;;;;;;;;5057872;28;20044;-90
2021/11/04 09:56:50;;;;;;;18.65;5.03;;;;;;;;;;5058447;28;20029;-87
2021/11/04 09:59:16;;;;;;;17.10;5.07;;;;;;;;;;5057798;28;20045;-93
2021/11/04 10:01:47;;;;;;;14.88;6.65;;;;;;;;;;5040079;28;20036;-92
2021/11/04 10:04:13;;;;;;;17.42;5.78;;;;;;;;;;5057535;28;20025;-93
2021/11/04 10:06:40;;;;;;;19.35;5.30;;;;;;;;;;5040276;28;20033;-93
2021/11/04 10:09:11;;;;;;;17.50;4.93;;;;;;;;;;5039045;28;20131;-93
2021/11/04 10:11:41;;;;;;;20.98;5.28;;;;;;;;;;5057753;28;20048;-94
2021/11/04 10:14:09;;;;;;;16.20;5.93;;;;;;;;;;5057333;28;20316;-93
2021/11/04 10:16:35;;;;;;;18.45;6.40;;;;;;;;;;5039906;28;20025;-93
2021/11/04 10:19:02;;;;;;;18.60;6.47;;;;;;;;;;5039941;28;20047;-95
2021/11/04 10:24:32;;;;;;;16.13;6.07;;;;;;;;;;5057532;28;20032;-93
2021/11/04 10:26:58;;;;;;;14.68;5.40;;;;;;;;;;5057231;28;20425;-93
2021/11/04 10:29:25;;;;;;;26.88;6.63;;;;;;;;;;5057114;28;20048;-93
2021/11/04 10:31:55;;;;;;;13.60;6.13;;;;;;;;;;5057511;28;20025;-94
2021/11/04 10:34:33;;;;;;;18.70;6.75;;;;;;;;;;5037355;28;20021;-93
2021/11/04 10:37:18;;;;;;;20.75;6.82;;;;;;;;;;5057150;28;20037;-93
2021/11/04 10:39:45;;;;;;;21.90;6.65;;;;;;;;;;5039320;28;20072;-93
2021/11/04 10:42:11;;;;;;;22.00;6.95;;;;;;;;;;5039439;28;20505;-94
2021/11/04 10:44:37;;;;;;;20.42;6.78;;;;;;;;;;5057358;28;20024;-94
2021/11/04 10:47:04;;;;;;;16.20;6.72;;;;;;;;;;5057367;28;20025;-92
2021/11/04 10:52:28;;;;;;;16.00;5.97;;;;;;;;;;5056863;28;20336;-93
2021/11/04 10:54:55;;;;;;;18.25;6.28;;;;;;;;;;5057200;28;20029;-94
2021/11/04 10:57:34;;;;;;;26.50;6.95;;;;;;;;;;5039371;28;20021;-92
2021/11/04 11:00:20;;;;;;;20.65;6.68;;;;;;;;;;5042761;28;20025;-93
2021/11/04 11:03:01;;;;;;;18.55;6.55;;;;;;;;;;4961161;29;20035;-93
2021/11/04 11:05:31;;;;;;;21.52;5.10;;;;;;;;;;4946007;29;20039;-94
2021/11/04 11:07:58;;;;;;;13.55;6.30;;;;;;;;;;4941557;29;20036;-93
2021/11/04 11:10:24;;;;;;;13.80;5.32;;;;;;;;;;4941702;29;20042;-94
2021/11/04 11:12:50;;;;;;;16.33;5.63;;;;;;;;;;4941525;29;20028;-93
2021/11/04 11:15:17;;;;;;;15.07;6.00;;;;;;;;;;4941485;29;20020;-94
2021/11/04 11:17:44;;;;;;;15.15;5.43;;;;;;;;;;4941679;29;20030;-94
2021/11/04 11:20:29;;;;;;;19.58;6.05;;;;;;;;;;4941534;29;20034;-93
2021/11/04 11:22:55;;;;;;;24.00;7.60;;;;;;;;;;4941490;29;20316;-94
2021/11/04 11:25:22;;;;;;;14.93;6.88;;;;;;;;;;4941156;29;20462;-93
2021/11/04 11:27:51;;;;;;;21.80;7.07;;;;;;;;;;4941144;29;20044;-92
2021/11/04 11:30:17;;;;;;;23.27;5.88;;;;;;;;;;4941110;29;20055;-94
2021/11/04 11:32:48;;;;;;;16.63;5.07;;;;;;;;;;4941001;29;20039;-93
2021/11/04 11:38:41;;;;;;;19.80;6.32;;;;;;;;;;4939040;29;20183;-94
2021/11/04 11:41:07;;;;;;;11.90;5.47;;;;;;;;;;5019377;28;20034;-92
2021/11/04 11:44:10;;;;;;;17.77;6.28;;;;;;;;;;5022783;28;20053;-93
2021/11/04 11:46:55;;;;;;;17.15;7.75;;;;;;;;;;4979508;28;20325;-93
2021/11/04 11:49:21;;;;;;;18.10;6.30;;;;;;;;;;4979329;28;20039;-93
2021/11/04 11:52:24;;;;;;;19.05;6.35;;;;;;;;;;4962938;28;20058;-95
2021/11/04 11:54:58;;;;;;;24.40;6.07;;;;;;;;;;4979270;28;20023;-95
2021/11/04 11:57:25;;;;;;;12.80;6.93;;;;;;;;;;4962723;28;20106;-95
2021/11/04 11:59:55;;;;;;;15.45;6.90;;;;;;;;;;4950687;29;20534;-92
2021/11/04 12:02:39;;;;;;;16.40;7.03;;;;;;;;;;4960059;29;20046;-93
2021/11/04 12:05:25;;;;;;;17.80;6.05;;;;;;;;;;4955238;28;20413;-94
2021/11/04 12:08:16;;;;;;;18.00;7.60;;;;;;;;;;4978785;28;20081;-92
2021/11/04 12:10:43;;;;;;;18.95;5.95;;;;;;;;;;4978568;28;20109;-92
2021/11/04 12:13:30;;;;;;;16.05;6.32;;;;;;;;;;4947703;29;20058;-92
2021/11/04 12:16:05;;;;;;;17.00;5.50;;;;;;;;;;4978831;28;20035;-92
2021/11/04 12:18:31;;;;;;;19.95;8.00;;;;;;;;;;4978899;28;20221;-92
2021/11/04 12:27:09;;;;;;;19.48;7.47;;;;;;;;;;5019500;28;20053;-92
2021/11/04 12:29:35;;;;;;;20.92;7.60;;;;;;;;;;5001937;28;20352;-93
2021/11/04 12:32:08;;;;;;;25.80;9.18;;;;;;;;;;5019566;28;20029;-96
2021/11/04 12:34:34;;;;;;;49.65;20.80;;;;;;;;;;5019403;28;20033;-96
2021/11/04 12:37:06;;;;;;;47.97;17.35;;;;;;;;;;5019393;28;20026;-95
2021/11/04 12:39:32;;;;;;;46.72;19.85;;;;;;;;;;5019388;28;20069;-95
2021/11/04 12:42:00;;;;;;;61.97;27.17;;;;;;;;;;5019850;28;20145;-95
2021/11/04 12:44:36;;;;;;;28.77;12.38;;;;;;;;;;5002139;28;20420;-96
2021/11/04 12:47:03;;;;;;;22.52;8.02;;;;;;;;;;5002512;28;20053;-95
2021/11/04 13:05:09;;;;;;;14.98;5.00;;;;;;;;;;6059633;23;20890;-95
2021/11/04 13:15:29;;;;;;;22.67;9.88;;;;;;;;;;4980070;26;20098;-96
2021/11/04 13:17:59;;;;;;;30.80;11.15;;;;;;;;;;4965377;28;20023;-93
2021/11/04 13:20:28;;;;;;;41.08;15.57;;;;;;;;;;4963017;28;20058;-90
2021/11/04 13:23:07;;;;;;;28.48;11.82;;;;;;;;;;4978931;28;20031;-91
2021/11/04 13:25:42;;;;;;;27.25;9.27;;;;;;;;;;4979292;28;20318;-90
2021/11/04 13:28:13;;;;;;;26.33;10.07;;;;;;;;;;4962493;28;20043;-90
2021/11/04 13:30:44;;;;;;;17.48;7.72;;;;;;;;;;4998625;28;20032;-90
2021/11/04 13:33:10;;;;;;;13.75;6.25;;;;;;;;;;4998370;28;20089;-91
2021/11/04 13:35:38;;;;;;;13.27;5.68;;;;;;;;;;4965276;28;20081;-90
2021/11/04 13:38:09;;;;;;;20.15;8.30;;;;;;;;;;4981406;28;20018;-90
2021/11/04 13:40:42;;;;;;;47.92;16.65;;;;;;;;;;4998314;28;20030;-91
2021/11/04 13:43:10;;;;;;;77.97;22.67;;;;;;;;;;4981101;28;20030;-91
2021/11/04 13:45:36;;;;;;;61.17;19.40;;;;;;;;;;4998089;28;20030;-91
2021/11/04 13:48:02;;;;;;;66.03;21.35;;;;;;;;;;4981464;28;20033;-91
2021/11/04 13:53:28;;;;;;;27.13;14.68;;;;;;;;;;4998493;28;20109;-91
2021/11/04 13:55:55;;;;;;;28.15;14.48;;;;;;;;;;4981118;28;20073;-91
2021/11/04 13:58:40;;;;;;;25.90;14.02;;;;;;;;;;4981003;28;20049;-91
2021/11/04 14:01:09;;;;;;;44.65;24.25;;;;;;;;;;4981340;28;20033;-90
2021/11/04 14:03:35;;;;;;;48.25;24.40;;;;;;;;;;4980986;28;20451;-90
2021/11/04 14:09:26;;;;;;;56.85;39.50;;;;;;;;;;4998504;28;20061;-90
2021/11/04 14:12:01;;;;;;;24.65;10.57;;;;;;;;;;4997893;28;20026;-91
2021/11/04 14:14:27;;;;;;;30.83;11.65;;;;;;;;;;4997658;28;20097;-90
2021/11/04 14:17:02;;;;;;;34.97;22.90;;;;;;;;;;4997915;28;20019;-91
2021/11/04 14:19:29;;;;;;;30.42;18.67;;;;;;;;;;4981264;28;20026;-91
2021/11/04 14:21:55;;;;;;;33.90;15.75;;;;;;;;;;4980802;28;20037;-90
2021/11/04 14:24:21;;;;;;;29.50;19.27;;;;;;;;;;4997608;28;20030;-91
2021/11/04 14:26:47;;;;;;;37.55;22.70;;;;;;;;;;4998051;28;20029;-91
2021/11/04 14:29:13;;;;;;;36.72;17.73;;;;;;;;;;4980393;28;20034;-91
2021/11/04 14:31:41;;;;;;;37.30;17.15;;;;;;;;;;4997855;28;20286;-90
2021/11/04 14:34:07;;;;;;;37.92;17.02;;;;;;;;;;4983889;28;20030;-90
2021/11/04 14:36:34;;;;;;;35.58;15.77;;;;;;;;;;4984602;28;20054;-91
2021/11/04 14:39:00;;;;;;;33.85;14.88;;;;;;;;;;4984412;28;20027;-91
2021/11/04 14:41:26;;;;;;;33.42;16.15;;;;;;;;;;4984131;28;20065;-91
2021/11/04 14:43:53;;;;;;;32.53;15.82;;;;;;;;;;5001580;28;20034;-91
2021/11/04 14:46:19;;;;;;;35.40;15.38;;;;;;;;;;5001720;28;20034;-90
2021/11/04 14:48:45;;;;;;;37.58;18.40;;;;;;;;;;5001536;28;20034;-90
2021/11/04 14:54:14;;;;;;;50.05;24.38;;;;;;;;;;5001645;28;20069;-92
2021/11/04 14:56:41;;;;;;;39.28;19.27;;;;;;;;;;4984211;28;20134;-92
2021/11/04 14:59:07;;;;;;;36.55;16.60;;;;;;;;;;4983988;28;20026;-91
2021/11/04 15:01:33;;;;;;;37.97;16.90;;;;;;;;;;5001667;28;20026;-90
2021/11/04 15:03:59;;;;;;;36.22;15.13;;;;;;;;;;5001450;28;20041;-89
2021/11/04 15:06:27;;;;;;;36.38;15.30;;;;;;;;;;5001414;28;20030;-91
2021/11/04 15:08:56;;;;;;;32.25;13.63;;;;;;;;;;5001357;28;20069;-91
2021/11/04 15:11:22;;;;;;;33.08;14.68;;;;;;;;;;5001243;28;20033;-91
2021/11/04 15:13:48;;;;;;;31.88;14.32;;;;;;;;;;5000793;28;20050;-91
2021/11/04 15:16:14;;;;;;;28.48;13.65;;;;;;;;;;4983701;28;20037;-91
2021/11/04 15:18:40;;;;;;;29.33;13.43;;;;;;;;;;5000968;28;20046;-90
2021/11/04 15:24:10;;;;;;;28.98;12.30;;;;;;;;;;5001145;28;20093;-91
2021/11/04 15:26:37;;;;;;;33.92;13.27;;;;;;;;;;4983672;28;20030;-91
2021/11/04 15:29:03;;;;;;;30.92;12.93;;;;;;;;;;5000922;28;20030;-91
2021/11/04 15:31:30;;;;;;;30.17;14.80;;;;;;;;;;4983610;28;20121;-90
2021/11/04 15:33:56;;;;;;;42.50;17.60;;;;;;;;;;4983566;28;20042;-90
2021/11/04 15:36:25;;;;;;;44.28;20.80;;;;;;;;;;5000780;28;20109;-90
2021/11/04 15:38:51;;;;;;;41.70;19.60;;;;;;;;;;4983553;28;20034;-91